createdAt,value
2023-02-11T00:00:49.859Z,90.76
2023-02-11T00:03:18.003Z,91.87
2023-02-11T00:05:45.650Z,91.10
2023-02-11T00:08:17.015Z,89.60
2023-02-11T00:10:46.427Z,91.06
2023-02-11T00:13:14.091Z,90.03
2023-02-11T00:15:41.833Z,89.86
2023-02-11T00:18:09.519Z,89.55
2023-02-11T00:20:39.655Z,88.98
2023-02-11T00:23:07.330Z,89.15
2023-02-11T00:25:37.231Z,88.25
2023-02-11T00:28:06.219Z,88.77
2023-02-11T00:30:34.204Z,88.39
2023-02-11T00:33:01.734Z,88.23
2023-02-11T00:35:29.646Z,88.68
2023-02-11T00:37:57.712Z,88.85
2023-02-11T00:40:25.453Z,88.40
2023-02-11T00:42:52.896Z,87.72
2023-02-11T00:45:21.890Z,88.82
2023-02-11T00:47:49.664Z,89.07
2023-02-11T00:50:17.333Z,88.85
2023-02-11T00:52:44.943Z,88.46
2023-02-11T00:55:12.603Z,88.99
2023-02-11T00:57:40.231Z,89.05
2023-02-11T01:00:08.835Z,88.64
2023-02-11T01:02:37.811Z,88.57
2023-02-11T01:05:06.271Z,88.17
2023-02-11T01:07:33.934Z,87.73
2023-02-11T01:10:01.818Z,88.93
2023-02-11T01:12:29.472Z,88.60
2023-02-11T01:14:57.140Z,88.21
2023-02-11T01:17:24.928Z,88.85
2023-02-11T01:19:53.925Z,89.24
2023-02-11T01:22:21.591Z,88.77
2023-02-11T01:24:49.257Z,89.60
2023-02-11T01:27:16.898Z,88.88
2023-02-11T01:29:44.578Z,90.48
2023-02-11T01:32:12.213Z,89.26
2023-02-11T01:34:39.886Z,88.73
2023-02-11T01:37:08.835Z,88.36
2023-02-11T01:39:37.130Z,88.55
2023-02-11T01:42:05.014Z,88.46
2023-02-11T01:44:35.796Z,87.80
2023-02-11T01:47:04.800Z,88.71
2023-02-11T01:49:36.396Z,88.53
2023-02-11T01:52:09.662Z,89.05
2023-02-11T01:54:58.933Z,88.22
2023-02-11T01:57:30.023Z,88.15
2023-02-11T02:00:04.459Z,88.61
2023-02-11T02:02:37.808Z,90.18
2023-02-11T02:05:11.036Z,88.35
2023-02-11T02:07:46.814Z,87.80
2023-02-11T02:10:18.620Z,87.54
2023-02-11T02:12:46.315Z,87.73
2023-02-11T02:15:27.458Z,88.60
2023-02-11T02:18:30.842Z,89.89
2023-02-11T02:21:45.152Z,90.82
2023-02-11T02:24:39.813Z,89.80
2023-02-11T02:27:27.799Z,89.56
2023-02-11T02:30:15.834Z,89.76
2023-02-11T02:32:50.728Z,89.18
2023-02-11T02:35:30.555Z,88.95
2023-02-11T02:38:04.291Z,89.46
2023-02-11T02:40:37.806Z,89.71
2023-02-11T02:43:06.127Z,90.59
2023-02-11T02:45:34.269Z,90.16
2023-02-11T02:48:03.228Z,89.09
2023-02-11T02:50:34.721Z,89.24
2023-02-11T02:53:18.815Z,88.95
2023-02-11T02:56:04.219Z,90.19
2023-02-11T02:58:54.370Z,91.26
2023-02-11T03:01:33.181Z,92.84
2023-02-11T03:04:13.281Z,91.48
2023-02-11T03:06:49.407Z,90.28
2023-02-11T03:09:23.088Z,88.69
2023-02-11T03:11:50.994Z,88.46
2023-02-11T03:14:21.016Z,89.86
2023-02-11T03:16:50.817Z,90.63
2023-02-11T03:19:22.379Z,90.91
2023-02-11T03:21:52.561Z,90.92
2023-02-11T03:24:26.473Z,90.26
2023-02-11T03:26:56.076Z,89.89
2023-02-11T03:29:35.105Z,90.01
2023-02-11T03:32:07.876Z,90.09
2023-02-11T03:34:43.115Z,90.56
2023-02-11T03:37:15.107Z,90.93
2023-02-11T03:39:47.836Z,90.77
2023-02-11T03:42:16.926Z,92.16
2023-02-11T03:44:50.342Z,91.37
2023-02-11T03:47:22.279Z,91.47
2023-02-11T03:49:54.499Z,90.73
2023-02-11T03:52:25.258Z,90.89
2023-02-11T03:54:57.148Z,91.57
2023-02-11T03:57:25.037Z,91.75
2023-02-11T03:59:55.287Z,91.23
2023-02-11T04:02:24.826Z,91.25
2023-02-11T04:04:53.822Z,91.68
2023-02-11T04:07:21.650Z,91.20
2023-02-11T04:09:49.371Z,91.83
2023-02-11T04:12:16.978Z,92.28
2023-02-11T04:14:44.644Z,91.80
2023-02-11T04:17:12.985Z,92.03
2023-02-11T04:19:41.074Z,92.47
2023-02-11T04:22:10.140Z,93.32
2023-02-11T04:24:37.817Z,92.37
2023-02-11T04:27:05.644Z,92.82
2023-02-11T04:29:33.377Z,92.84
2023-02-11T04:32:01.084Z,93.22
2023-02-11T04:34:28.895Z,92.84
2023-02-11T04:36:56.550Z,92.57
2023-02-11T04:39:25.659Z,92.75
2023-02-11T04:41:53.273Z,92.02
2023-02-11T04:44:20.957Z,91.74
2023-02-11T04:46:48.592Z,92.30
2023-02-11T04:49:17.214Z,92.54
2023-02-11T04:51:47.600Z,92.34
2023-02-11T04:54:16.732Z,91.85
2023-02-11T04:56:45.726Z,92.17
2023-02-11T04:59:13.696Z,92.77
2023-02-11T05:01:41.589Z,92.66
2023-02-11T05:04:09.400Z,92.13
2023-02-11T05:06:39.215Z,92.08
2023-02-11T05:09:06.868Z,92.62
2023-02-11T05:11:34.545Z,93.35
2023-02-11T05:14:03.539Z,93.19
2023-02-11T05:16:31.178Z,92.45
2023-02-11T05:18:58.871Z,92.40
2023-02-11T05:21:26.940Z,92.88
2023-02-11T05:23:54.609Z,92.84
2023-02-11T05:26:22.274Z,93.00
2023-02-11T05:28:49.984Z,93.10
2023-02-11T05:31:19.098Z,93.05
2023-02-11T05:33:46.743Z,93.15
2023-02-11T05:36:14.607Z,93.49
2023-02-11T05:38:43.325Z,92.45
2023-02-11T05:41:14.485Z,93.69
2023-02-11T05:43:42.132Z,92.92
2023-02-11T05:46:09.865Z,93.10
2023-02-11T05:48:38.960Z,93.36
2023-02-11T05:51:06.777Z,92.84
2023-02-11T05:53:34.457Z,93.51
2023-02-11T05:56:02.794Z,93.02
2023-02-11T05:58:30.547Z,93.26
2023-02-11T06:00:58.150Z,92.82
2023-02-11T06:03:25.950Z,93.29
2023-02-11T06:05:55.010Z,92.61
2023-02-11T06:08:22.620Z,91.86
2023-02-11T06:10:50.227Z,92.41
2023-02-11T06:13:18.576Z,93.09
2023-02-11T06:15:46.736Z,92.72
2023-02-11T06:18:14.447Z,93.94
2023-02-11T06:20:42.024Z,93.74
2023-02-11T06:23:11.013Z,93.26
2023-02-11T06:25:38.636Z,93.49
2023-02-11T06:28:06.284Z,93.33
2023-02-11T06:30:33.951Z,93.86
2023-02-11T06:33:01.551Z,93.35
2023-02-11T06:35:29.456Z,94.03
2023-02-11T06:37:57.303Z,93.45
2023-02-11T06:40:26.333Z,93.77
2023-02-11T06:42:54.294Z,93.44
2023-02-11T06:45:21.958Z,93.02
2023-02-11T06:47:53.131Z,94.02
2023-02-11T06:50:20.886Z,93.21
2023-02-11T06:52:48.633Z,93.58
2023-02-11T06:55:16.316Z,93.67
2023-02-11T06:57:45.332Z,94.21
2023-02-11T07:00:14.536Z,93.88
2023-02-11T07:02:42.076Z,93.68
2023-02-11T07:05:12.935Z,93.99
2023-02-11T07:07:40.597Z,93.66
2023-02-11T07:10:08.918Z,93.59
2023-02-11T07:12:36.505Z,93.25
2023-02-11T07:15:06.002Z,93.39
2023-02-11T07:17:35.321Z,92.96
2023-02-11T07:20:03.421Z,93.26
2023-02-11T07:22:31.035Z,93.11
2023-02-11T07:24:58.704Z,92.40
2023-02-11T07:27:26.383Z,93.06
2023-02-11T07:29:54.037Z,93.15
2023-02-11T07:32:23.007Z,92.54
2023-02-11T07:34:50.641Z,92.52
2023-02-11T07:37:18.314Z,92.58
2023-02-11T07:39:45.918Z,91.88
2023-02-11T07:42:13.781Z,92.18
2023-02-11T07:44:41.406Z,92.41
2023-02-11T07:47:09.146Z,92.01
2023-02-11T07:49:38.111Z,92.73
2023-02-11T07:52:05.918Z,91.42
2023-02-11T07:54:33.555Z,91.25
2023-02-11T07:57:01.145Z,91.95
2023-02-11T07:59:28.863Z,91.93
2023-02-11T08:01:56.671Z,91.50
2023-02-11T08:04:24.306Z,91.38
2023-02-11T08:06:57.919Z,90.62
2023-02-11T08:09:26.688Z,90.16
2023-02-11T08:11:54.357Z,90.81
2023-02-11T08:14:22.043Z,91.09
2023-02-11T08:16:49.654Z,91.07
2023-02-11T08:19:18.224Z,91.00
2023-02-11T08:21:45.957Z,91.83
2023-02-11T08:24:14.981Z,91.92
2023-02-11T08:26:42.780Z,91.36
2023-02-11T08:29:14.072Z,91.56
2023-02-11T08:31:44.275Z,90.00
2023-02-11T08:34:14.252Z,90.39
2023-02-11T08:36:44.720Z,90.14
2023-02-11T08:39:19.650Z,89.81
2023-02-11T08:41:48.788Z,91.36
2023-02-11T08:44:16.881Z,90.45
2023-02-11T08:46:44.576Z,90.20
2023-02-11T08:49:12.248Z,90.46
2023-02-11T08:51:39.931Z,90.92
2023-02-11T08:54:09.787Z,91.30
2023-02-11T08:56:40.156Z,91.18
2023-02-11T08:59:09.132Z,91.07
2023-02-11T09:01:36.850Z,92.51
2023-02-11T09:04:04.847Z,91.93
2023-02-11T09:06:33.242Z,92.15
2023-02-11T09:09:00.844Z,92.17
2023-02-11T09:11:30.993Z,91.95
2023-02-11T09:14:00.406Z,92.30
2023-02-11T09:16:30.569Z,90.52
2023-02-11T09:18:59.823Z,90.20
2023-02-11T09:21:28.297Z,90.65
2023-02-11T09:23:55.962Z,90.60
2023-02-11T09:26:25.769Z,90.72
2023-02-11T09:28:53.603Z,89.49
2023-02-11T09:31:25.158Z,89.49
2023-02-11T09:33:55.303Z,89.72
2023-02-11T09:36:25.632Z,90.06
2023-02-11T09:38:54.593Z,88.84
2023-02-11T09:41:34.098Z,87.08
2023-02-11T09:44:04.829Z,89.72
2023-02-11T09:46:37.506Z,88.07
2023-02-11T09:49:07.034Z,88.17
2023-02-11T09:51:42.120Z,87.04
2023-02-11T09:54:16.667Z,87.10
2023-02-11T09:56:44.307Z,88.66
2023-02-11T09:59:16.156Z,87.79
2023-02-11T10:01:50.395Z,88.16
2023-02-11T10:04:33.327Z,89.31
2023-02-11T10:07:12.993Z,88.70
2023-02-11T10:09:55.919Z,88.29
2023-02-11T10:12:36.046Z,85.89
2023-02-11T10:15:19.876Z,85.31
2023-02-11T10:18:03.194Z,84.73
2023-02-11T10:20:34.651Z,86.28
2023-02-11T10:23:09.539Z,87.67
2023-02-11T10:25:39.312Z,85.38
2023-02-11T10:28:14.233Z,83.50
2023-02-11T10:30:47.586Z,84.21
2023-02-11T10:33:24.372Z,83.55
2023-02-11T10:35:52.032Z,83.69
2023-02-11T10:38:19.732Z,84.30
2023-02-11T10:40:47.324Z,82.26
2023-02-11T10:43:17.598Z,83.66
2023-02-11T10:45:47.269Z,84.20
2023-02-11T10:48:39.793Z,83.81
2023-02-11T10:51:19.215Z,82.32
2023-02-11T10:53:47.837Z,83.98
2023-02-11T10:56:22.737Z,82.50
2023-02-11T10:58:59.296Z,83.37
2023-02-11T11:01:41.583Z,84.10
2023-02-11T11:04:33.697Z,82.19
2023-02-11T11:07:12.987Z,81.67
2023-02-11T11:09:47.475Z,81.75
2023-02-11T11:12:26.848Z,81.70
2023-02-11T11:14:59.309Z,81.65
2023-02-11T11:17:29.057Z,82.23
2023-02-11T11:20:15.873Z,81.83
2023-02-11T11:22:45.426Z,82.34
2023-02-11T11:25:23.528Z,82.02
2023-02-11T11:27:51.871Z,81.99
2023-02-11T11:30:20.167Z,82.67
2023-02-11T11:32:48.082Z,83.10
2023-02-11T11:35:27.247Z,83.02
2023-02-11T11:37:59.959Z,82.94
2023-02-11T11:40:31.397Z,82.45
2023-02-11T11:43:20.187Z,83.34
2023-02-11T11:45:57.066Z,83.29
2023-02-11T11:48:29.071Z,84.83
2023-02-11T11:51:01.141Z,85.67
2023-02-11T11:53:38.570Z,84.57
2023-02-11T11:56:07.886Z,84.80
2023-02-11T11:58:36.086Z,84.13
2023-02-11T12:01:17.563Z,83.93
2023-02-11T12:04:30.041Z,84.77
2023-02-11T12:07:11.878Z,83.30
2023-02-11T12:09:52.083Z,83.50
2023-02-11T12:12:32.174Z,84.13
2023-02-11T12:15:12.910Z,85.13
2023-02-11T12:17:57.026Z,84.13
2023-02-11T12:20:33.935Z,83.13
2023-02-11T12:23:20.674Z,83.93
2023-02-11T12:25:55.402Z,81.93
2023-02-11T12:28:37.134Z,81.82
2023-02-11T12:31:19.226Z,82.47
2023-02-11T12:34:11.016Z,82.74
2023-02-11T12:36:54.189Z,83.11
2023-02-11T12:39:33.997Z,82.08
2023-02-11T12:42:56.668Z,81.76
2023-02-11T12:45:39.644Z,81.63
2023-02-11T12:48:22.524Z,80.86
2023-02-11T12:50:57.103Z,82.87
2023-02-11T12:53:46.280Z,81.32
2023-02-11T12:56:20.507Z,80.42
2023-02-11T12:58:51.367Z,81.07
2023-02-11T13:01:23.393Z,81.52
2023-02-11T13:03:56.291Z,79.82
2023-02-11T13:06:29.861Z,79.98
2023-02-11T13:09:02.599Z,79.22
2023-02-11T13:11:38.435Z,80.74
2023-02-11T13:14:13.533Z,81.83
2023-02-11T13:16:42.156Z,80.14
2023-02-11T13:19:21.370Z,79.77
2023-02-11T13:22:03.687Z,79.81
2023-02-11T13:24:42.166Z,80.05
2023-02-11T13:27:23.843Z,78.96
2023-02-11T13:30:22.276Z,80.51
2023-02-11T13:33:42.966Z,79.98
2023-02-11T13:36:17.537Z,81.59
2023-02-11T13:39:01.341Z,80.97
2023-02-11T13:41:32.299Z,80.51
2023-02-11T13:44:03.847Z,82.07
2023-02-11T13:46:50.645Z,81.67
2023-02-11T13:49:24.322Z,80.72
2023-02-11T13:51:53.372Z,80.86
2023-02-11T13:54:29.227Z,81.58
2023-02-11T13:57:32.435Z,81.87
2023-02-11T14:00:02.843Z,81.72
2023-02-11T14:02:50.800Z,81.24
2023-02-11T14:05:49.424Z,80.88
2023-02-11T14:08:39.392Z,81.63
2023-02-11T14:11:12.140Z,82.64
2023-02-11T14:14:17.048Z,83.21
2023-02-11T14:17:24.127Z,82.34
2023-02-11T14:19:53.269Z,84.28
2023-02-11T14:22:25.874Z,83.69
2023-02-11T14:24:56.326Z,84.42
2023-02-11T14:27:31.439Z,83.89
2023-02-11T14:30:14.871Z,84.40
2023-02-11T14:32:52.619Z,84.47
2023-02-11T14:35:30.045Z,85.07
2023-02-11T14:38:06.781Z,84.95
2023-02-11T14:40:39.678Z,84.39
2023-02-11T14:43:14.391Z,85.28
2023-02-11T14:45:46.186Z,85.93
2023-02-11T14:48:17.164Z,86.04
2023-02-11T14:50:49.979Z,87.06
2023-02-11T14:53:21.762Z,87.43
2023-02-11T14:55:52.345Z,86.68
2023-02-11T14:58:22.238Z,86.07
2023-02-11T15:01:01.037Z,87.06
2023-02-11T15:03:33.795Z,85.98
2023-02-11T15:06:06.186Z,87.18
2023-02-11T15:08:38.168Z,87.38
2023-02-11T15:11:12.901Z,88.17
2023-02-11T15:13:47.294Z,87.39
2023-02-11T15:16:18.421Z,88.00
2023-02-11T15:18:48.934Z,88.08
2023-02-11T15:21:23.985Z,88.04
2023-02-11T15:24:00.723Z,88.36
2023-02-11T15:26:29.205Z,88.58
2023-02-11T15:28:56.994Z,88.72
2023-02-11T15:31:26.729Z,88.79
2023-02-11T15:33:55.226Z,88.33
2023-02-11T15:36:28.496Z,88.20
2023-02-11T15:39:17.290Z,88.76
2023-02-11T15:41:45.276Z,88.90
2023-02-11T15:44:28.420Z,89.19
2023-02-11T15:46:56.242Z,87.95
2023-02-11T15:49:25.148Z,88.61
2023-02-11T15:51:54.938Z,88.66
2023-02-11T15:54:26.635Z,89.00
2023-02-11T15:56:59.841Z,88.35
2023-02-11T15:59:30.934Z,88.18
2023-02-11T16:02:06.445Z,87.85
2023-02-11T16:04:34.099Z,88.24
2023-02-11T16:07:03.047Z,88.47
2023-02-11T16:09:35.861Z,87.41
2023-02-11T16:12:07.359Z,89.10
2023-02-11T16:14:39.034Z,87.44
2023-02-11T16:17:09.979Z,87.36
2023-02-11T16:19:43.596Z,88.04
2023-02-11T16:22:17.621Z,88.55
2023-02-11T16:24:48.479Z,88.18
2023-02-11T16:27:23.505Z,88.06
2023-02-11T16:29:52.618Z,88.37
2023-02-11T16:32:22.249Z,88.10
2023-02-11T16:34:49.980Z,89.12
2023-02-11T16:37:18.953Z,88.83
2023-02-11T16:39:46.295Z,88.70
2023-02-11T16:42:14.214Z,88.18
2023-02-11T16:44:41.716Z,88.18
2023-02-11T16:47:18.186Z,89.14
2023-02-11T16:49:45.685Z,88.31
2023-02-11T16:52:16.296Z,88.74
2023-02-11T16:54:45.422Z,89.43
2023-02-11T16:57:15.368Z,89.32
2023-02-11T16:59:43.215Z,89.06
2023-02-11T17:02:16.784Z,88.95
2023-02-11T17:04:44.998Z,89.65
2023-02-11T17:07:12.543Z,89.82
2023-02-11T17:09:40.403Z,89.70
2023-02-11T17:12:09.284Z,89.66
2023-02-11T17:14:36.761Z,89.34
2023-02-11T17:17:04.222Z,89.55
2023-02-11T17:19:34.385Z,88.90
2023-02-11T17:22:01.886Z,89.33
2023-02-11T17:24:29.374Z,89.43
2023-02-11T17:26:56.831Z,89.45
2023-02-11T17:29:27.061Z,89.77
2023-02-11T17:31:54.729Z,89.27
2023-02-11T17:34:23.025Z,90.06
2023-02-11T17:36:51.677Z,89.38
2023-02-11T17:39:20.943Z,89.37
2023-02-11T17:41:48.486Z,89.67
2023-02-11T17:44:16.248Z,89.79
2023-02-11T17:46:45.232Z,89.58
2023-02-11T17:49:12.909Z,89.51
2023-02-11T17:51:40.752Z,90.18
2023-02-11T17:54:12.336Z,89.70
2023-02-11T17:56:40.669Z,89.83
2023-02-11T17:59:09.401Z,89.64
2023-02-11T18:01:38.039Z,89.78
2023-02-11T18:04:09.306Z,89.74
2023-02-11T18:06:36.851Z,89.91
2023-02-11T18:09:04.796Z,90.42
2023-02-11T18:11:34.063Z,90.67
2023-02-11T18:14:02.354Z,90.34
2023-02-11T18:16:30.349Z,90.18
2023-02-11T18:18:59.023Z,90.07
2023-02-11T18:21:27.873Z,90.32
2023-02-11T18:23:56.838Z,91.22
2023-02-11T18:26:25.705Z,90.72
2023-02-11T18:28:53.494Z,91.42
2023-02-11T18:31:21.859Z,91.29
2023-02-11T18:33:49.543Z,91.02
2023-02-11T18:36:17.662Z,92.08
2023-02-11T18:38:46.630Z,92.24
2023-02-11T18:41:14.889Z,91.75
2023-02-11T18:43:42.982Z,92.39
2023-02-11T18:46:13.049Z,92.68
2023-02-11T18:48:40.979Z,92.77
2023-02-11T18:51:13.034Z,92.30
2023-02-11T18:53:40.562Z,92.49
2023-02-11T18:56:11.002Z,92.76
2023-02-11T18:58:38.927Z,92.56
2023-02-11T19:01:12.431Z,91.85
2023-02-11T19:03:39.965Z,92.18
2023-02-11T19:06:08.363Z,91.67
2023-02-11T19:08:35.812Z,91.96
2023-02-11T19:11:05.512Z,92.13
2023-02-11T19:13:34.591Z,92.52
2023-02-11T19:16:05.647Z,92.41
2023-02-11T19:18:33.190Z,92.34
2023-02-11T19:21:00.637Z,91.98
2023-02-11T19:23:30.403Z,93.13
2023-02-11T19:25:57.872Z,92.39
2023-02-11T19:28:25.344Z,91.63
2023-02-11T19:30:54.296Z,92.86
2023-02-11T19:33:21.845Z,91.95
2023-02-11T19:35:49.804Z,92.60
2023-02-11T19:38:18.061Z,93.15
2023-02-11T19:40:45.510Z,93.01
2023-02-11T19:43:12.958Z,93.57
2023-02-11T19:45:40.432Z,92.71
2023-02-11T19:48:12.394Z,92.55
2023-02-11T19:50:39.855Z,93.52
2023-02-11T19:53:07.370Z,92.80
2023-02-11T19:55:35.952Z,93.62
2023-02-11T19:58:03.402Z,92.93
2023-02-11T20:00:30.883Z,92.33
2023-02-11T20:02:58.521Z,92.56
2023-02-11T20:05:27.421Z,93.83
2023-02-11T20:07:54.880Z,94.08
2023-02-11T20:10:23.991Z,93.50
2023-02-11T20:12:51.621Z,93.76
2023-02-11T20:15:19.291Z,94.18
2023-02-11T20:17:46.762Z,94.30
2023-02-11T20:20:14.373Z,94.20
2023-02-11T20:22:43.170Z,94.48
2023-02-11T20:25:11.647Z,94.73
2023-02-11T20:27:39.150Z,94.92
2023-02-11T20:30:07.919Z,95.45
2023-02-11T20:32:38.041Z,94.61
2023-02-11T20:35:07.114Z,93.94
2023-02-11T20:37:34.710Z,95.24
2023-02-11T20:40:03.585Z,96.39
2023-02-11T20:42:31.040Z,96.93
2023-02-11T20:44:58.533Z,98.11
2023-02-11T20:47:25.973Z,97.32
2023-02-11T20:49:55.246Z,97.90
2023-02-11T20:52:23.021Z,98.16
2023-02-11T20:54:50.699Z,97.96
2023-02-11T20:57:19.514Z,99.09
2023-02-11T20:59:46.959Z,98.58
2023-02-11T21:02:14.584Z,99.16
2023-02-11T21:04:42.192Z,99.02
2023-02-11T21:07:09.678Z,99.93
2023-02-11T21:09:38.069Z,99.16
2023-02-11T21:12:06.336Z,99.52
2023-02-11T21:14:35.172Z,99.60
2023-02-11T21:17:02.643Z,100.00
2023-02-11T21:19:30.225Z,100.00
2023-02-11T21:22:00.434Z,100.00
2023-02-11T21:24:28.274Z,100.00
2023-02-11T21:26:55.764Z,100.00
2023-02-11T21:29:23.409Z,100.00
2023-02-11T21:31:52.519Z,100.00
2023-02-11T21:34:20.646Z,100.00
2023-02-11T21:36:51.150Z,100.00
2023-02-11T21:39:19.120Z,100.00
2023-02-11T21:41:46.941Z,100.00
2023-02-11T21:44:14.391Z,100.00
2023-02-11T21:46:41.912Z,100.00
2023-02-11T21:49:11.268Z,100.00
2023-02-11T21:51:38.832Z,100.00
2023-02-11T21:54:06.849Z,100.00
2023-02-11T21:56:35.358Z,100.00
2023-02-11T21:59:03.046Z,100.00
2023-02-11T22:01:32.810Z,100.00
2023-02-11T22:04:00.848Z,100.00
2023-02-11T22:06:32.473Z,100.00
2023-02-11T22:09:02.935Z,100.00
2023-02-11T22:11:30.936Z,100.00
2023-02-11T22:13:59.032Z,100.00
2023-02-11T22:16:27.927Z,100.00
2023-02-11T22:18:58.381Z,100.00
2023-02-11T22:21:27.798Z,100.00
2023-02-11T22:23:56.839Z,100.00
2023-02-11T22:26:27.470Z,100.00
2023-02-11T22:28:55.762Z,100.00
2023-02-11T22:31:25.256Z,100.00
2023-02-11T22:33:53.079Z,100.00
2023-02-11T22:36:22.355Z,100.00
2023-02-11T22:38:50.331Z,100.00
2023-02-11T22:41:20.126Z,100.00
2023-02-11T22:43:47.703Z,100.00
2023-02-11T22:46:17.692Z,100.00
2023-02-11T22:48:45.539Z,100.00
2023-02-11T22:51:15.409Z,100.00
2023-02-11T22:53:44.352Z,100.00
2023-02-11T22:56:15.622Z,100.00
2023-02-11T22:58:45.106Z,100.00
2023-02-11T23:01:13.593Z,100.00
2023-02-11T23:03:41.605Z,100.00
2023-02-11T23:06:10.017Z,100.00
2023-02-11T23:08:39.412Z,100.00
2023-02-11T23:11:08.459Z,100.00
2023-02-11T23:13:36.682Z,100.00
2023-02-11T23:16:07.208Z,100.00
2023-02-11T23:18:34.922Z,100.00
2023-02-11T23:21:06.905Z,100.00
2023-02-11T23:23:34.837Z,100.00
2023-02-11T23:26:03.360Z,100.00
2023-02-11T23:28:30.898Z,100.00
2023-02-11T23:30:58.541Z,100.00
2023-02-11T23:33:27.477Z,100.00
2023-02-11T23:35:55.203Z,100.00
2023-02-11T23:38:22.822Z,100.00
2023-02-11T23:40:50.282Z,100.00
2023-02-11T23:43:17.734Z,100.00
2023-02-11T23:45:45.184Z,100.00
2023-02-11T23:48:12.704Z,100.00
2023-02-11T23:50:43.855Z,100.00
2023-02-11T23:53:11.810Z,100.00
2023-02-11T23:55:41.039Z,100.00
2023-02-11T23:58:09.074Z,100.00
